THY9634 OEMA-OEJN
Flight info
| Callsign | THY9634 |
|---|---|
| Flight time | 0h 44m |
| Altitude | 26000 |
| Route | SISUD B544 NOMDA |
| Aircraft | A320/M-SDE3FGHIRWY/LB1 |
Departure
| Time | 2026-04-16 22:05 |
|---|---|
| Airport | Prince Mohammad Bin Abdulaziz Airport (OEMA) |
Arrival
| Time | 2026-04-16 22:50 |
|---|---|
| Airport | King Abdulaziz International Airport (OEJN) |
| Time | Latitude | Longitude | Altitude | Speed | Heading |
|---|---|---|---|---|---|
| 2026-04-16 21:45 | 24.54274 | 39.70032 | 2079 ft | 0 kts | 274° |
| 2026-04-16 21:58 | 24.54273 | 39.70036 | 2079 ft | 2 kts | 274° |
| 2026-04-16 21:59 | 24.54272 | 39.70052 | 2079 ft | 2 kts | 272° |
| 2026-04-16 21:59 | 24.54271 | 39.70069 | 2079 ft | 2 kts | 273° |
| 2026-04-16 21:59 | 24.54270 | 39.70079 | 2079 ft | 2 kts | 269° |
| 2026-04-16 21:59 | 24.54273 | 39.70095 | 2079 ft | 2 kts | 248° |
| 2026-04-16 22:00 | 24.54281 | 39.70110 | 2078 ft | 2 kts | 229° |
| 2026-04-16 22:00 | 24.54292 | 39.70121 | 2079 ft | 2 kts | 212° |
| 2026-04-16 22:00 | 24.54305 | 39.70128 | 2079 ft | 2 kts | 194° |
| 2026-04-16 22:00 | 24.54314 | 39.70130 | 2080 ft | 1 kts | 183° |
| 2026-04-16 22:01 | 24.54321 | 39.70130 | 2080 ft | 0 kts | 182° |
| 2026-04-16 22:02 | 24.54300 | 39.70131 | 2079 ft | 6 kts | 179° |
| 2026-04-16 22:03 | 24.54233 | 39.70132 | 2074 ft | 12 kts | 179° |
| 2026-04-16 22:03 | 24.54133 | 39.70129 | 2070 ft | 15 kts | 186° |
| 2026-04-16 22:03 | 24.54007 | 39.70119 | 2065 ft | 18 kts | 184° |
| 2026-04-16 22:03 | 24.53872 | 39.70108 | 2062 ft | 19 kts | 183° |
| 2026-04-16 22:04 | 24.53732 | 39.70098 | 2060 ft | 20 kts | 185° |
| 2026-04-16 22:04 | 24.53622 | 39.70146 | 2062 ft | 15 kts | 108° |
| 2026-04-16 22:04 | 24.53652 | 39.70198 | 2063 ft | 0 kts | 2° |
| 2026-04-16 22:04 | 24.53653 | 39.70198 | 2063 ft | 1 kts | 2° |
| 2026-04-16 22:05 | 24.53897 | 39.70217 | 2063 ft | 74 kts | 4° |
| 2026-04-16 22:05 | 24.54649 | 39.70278 | 2089 ft | 138 kts | 3° |
| 2026-04-16 22:05 | 24.55768 | 39.70349 | 2304 ft | 171 kts | 4° |
| 2026-04-16 22:05 | 24.56963 | 39.70433 | 2914 ft | 175 kts | 3° |
| 2026-04-16 22:06 | 24.58201 | 39.70522 | 3553 ft | 182 kts | 2° |
| 2026-04-16 22:06 | 24.60837 | 39.70700 | 4567 ft | 203 kts | 2° |
| 2026-04-16 22:06 | 24.62314 | 39.70808 | 4973 ft | 220 kts | 2° |
| 2026-04-16 22:07 | 24.63908 | 39.70909 | 5398 ft | 237 kts | 358° |
| 2026-04-16 22:07 | 24.65538 | 39.70423 | 5757 ft | 253 kts | 322° |
| 2026-04-16 22:07 | 24.66646 | 39.68968 | 6633 ft | 248 kts | 291° |
| 2026-04-16 22:07 | 24.66911 | 39.67139 | 7515 ft | 244 kts | 263° |
| 2026-04-16 22:08 | 24.66665 | 39.65294 | 8382 ft | 246 kts | 261° |
| 2026-04-16 22:08 | 24.66431 | 39.63444 | 9153 ft | 248 kts | 261° |
| 2026-04-16 22:08 | 24.66205 | 39.61548 | 9675 ft | 247 kts | 261° |
| 2026-04-16 22:08 | 24.65987 | 39.59671 | 9872 ft | 247 kts | 261° |
| 2026-04-16 22:09 | 24.65775 | 39.57774 | 9997 ft | 256 kts | 261° |
| 2026-04-16 22:09 | 24.65556 | 39.55764 | 10375 ft | 276 kts | 262° |
| 2026-04-16 22:09 | 24.65294 | 39.53580 | 10840 ft | 294 kts | 257° |
| 2026-04-16 22:09 | 24.64421 | 39.51510 | 11219 ft | 313 kts | 230° |
| 2026-04-16 22:10 | 24.63807 | 39.50867 | 11431 ft | 319 kts | 219° |
| 2026-04-16 22:10 | 24.61733 | 39.49860 | 12206 ft | 332 kts | 195° |
| 2026-04-16 22:10 | 24.59389 | 39.49667 | 13051 ft | 338 kts | 188° |
| 2026-04-16 22:10 | 24.57024 | 39.49530 | 13829 ft | 341 kts | 189° |
| 2026-04-16 22:11 | 24.54660 | 39.49356 | 14568 ft | 345 kts | 189° |
| 2026-04-16 22:11 | 24.52266 | 39.49168 | 15299 ft | 348 kts | 190° |
| 2026-04-16 22:11 | 24.49846 | 39.48972 | 16030 ft | 352 kts | 190° |
| 2026-04-16 22:11 | 24.47364 | 39.48766 | 16768 ft | 355 kts | 191° |
| 2026-04-16 22:12 | 24.44906 | 39.48563 | 17478 ft | 358 kts | 191° |
| 2026-04-16 22:12 | 24.42419 | 39.48355 | 18166 ft | 362 kts | 191° |
| 2026-04-16 22:12 | 24.39872 | 39.48138 | 18817 ft | 366 kts | 191° |
| 2026-04-16 22:12 | 24.37332 | 39.47925 | 19452 ft | 370 kts | 191° |
| 2026-04-16 22:13 | 24.34765 | 39.47709 | 20113 ft | 373 kts | 192° |
| 2026-04-16 22:13 | 24.32145 | 39.47489 | 20756 ft | 376 kts | 192° |
| 2026-04-16 22:13 | 24.29559 | 39.47269 | 21386 ft | 378 kts | 192° |
| 2026-04-16 22:13 | 24.26903 | 39.47047 | 21987 ft | 381 kts | 192° |
| 2026-04-16 22:14 | 24.24255 | 39.46825 | 22550 ft | 385 kts | 193° |
| 2026-04-16 22:14 | 24.21586 | 39.46601 | 23144 ft | 387 kts | 193° |
| 2026-04-16 22:14 | 24.18882 | 39.46372 | 23650 ft | 391 kts | 193° |
| 2026-04-16 22:14 | 24.16166 | 39.46145 | 24170 ft | 393 kts | 193° |
| 2026-04-16 22:15 | 24.13418 | 39.45914 | 24651 ft | 397 kts | 193° |
| 2026-04-16 22:15 | 24.10660 | 39.45683 | 25075 ft | 400 kts | 194° |
| 2026-04-16 22:15 | 24.07873 | 39.45450 | 25518 ft | 403 kts | 194° |
| 2026-04-16 22:15 | 24.05032 | 39.45209 | 25855 ft | 407 kts | 194° |
| 2026-04-16 22:16 | 24.02206 | 39.44971 | 25950 ft | 407 kts | 194° |
| 2026-04-16 22:16 | 23.99375 | 39.44733 | 25948 ft | 407 kts | 195° |
| 2026-04-16 22:16 | 23.96549 | 39.44496 | 25960 ft | 406 kts | 195° |
| 2026-04-16 22:16 | 23.93742 | 39.44260 | 25955 ft | 406 kts | 195° |
| 2026-04-16 22:17 | 23.90898 | 39.44022 | 25959 ft | 405 kts | 195° |
| 2026-04-16 22:17 | 23.88085 | 39.43785 | 25966 ft | 404 kts | 195° |
| 2026-04-16 22:17 | 23.85280 | 39.43553 | 25968 ft | 405 kts | 195° |
| 2026-04-16 22:17 | 23.82468 | 39.43321 | 25954 ft | 405 kts | 195° |
| 2026-04-16 22:18 | 23.79649 | 39.43089 | 25956 ft | 405 kts | 195° |
| 2026-04-16 22:18 | 23.76847 | 39.42744 | 25954 ft | 400 kts | 199° |
| 2026-04-16 22:18 | 23.74122 | 39.42202 | 25958 ft | 393 kts | 203° |
| 2026-04-16 22:18 | 23.71513 | 39.41474 | 25961 ft | 388 kts | 207° |
| 2026-04-16 22:19 | 23.68928 | 39.40597 | 25964 ft | 387 kts | 208° |
| 2026-04-16 22:19 | 23.66354 | 39.39705 | 25962 ft | 389 kts | 208° |
| 2026-04-16 22:19 | 23.63763 | 39.38805 | 25958 ft | 389 kts | 208° |
| 2026-04-16 22:19 | 23.61183 | 39.37912 | 25953 ft | 387 kts | 208° |
| 2026-04-16 22:20 | 23.58604 | 39.37026 | 25946 ft | 388 kts | 208° |
| 2026-04-16 22:20 | 23.56009 | 39.36131 | 25948 ft | 389 kts | 208° |
| 2026-04-16 22:20 | 23.53450 | 39.35245 | 25941 ft | 388 kts | 208° |
| 2026-04-16 22:20 | 23.50871 | 39.34353 | 25932 ft | 388 kts | 208° |
| 2026-04-16 22:21 | 23.48291 | 39.33450 | 25933 ft | 388 kts | 208° |
| 2026-04-16 22:21 | 23.45724 | 39.32552 | 25928 ft | 387 kts | 208° |
| 2026-04-16 22:21 | 23.43146 | 39.31655 | 25917 ft | 388 kts | 208° |
| 2026-04-16 22:21 | 23.40573 | 39.30763 | 25919 ft | 388 kts | 208° |
| 2026-04-16 22:22 | 23.38013 | 39.29875 | 25917 ft | 388 kts | 208° |
| 2026-04-16 22:22 | 23.35415 | 39.28981 | 25908 ft | 387 kts | 208° |
| 2026-04-16 22:22 | 23.32839 | 39.28093 | 25908 ft | 389 kts | 208° |
| 2026-04-16 22:22 | 23.30252 | 39.27200 | 25905 ft | 388 kts | 208° |
| 2026-04-16 22:23 | 23.27679 | 39.26312 | 25903 ft | 388 kts | 208° |
| 2026-04-16 22:23 | 23.25132 | 39.25436 | 25894 ft | 387 kts | 208° |
| 2026-04-16 22:23 | 23.22547 | 39.24547 | 25893 ft | 388 kts | 208° |
| 2026-04-16 22:23 | 23.19962 | 39.23658 | 25897 ft | 388 kts | 208° |
| 2026-04-16 22:24 | 23.17400 | 39.22777 | 25890 ft | 387 kts | 208° |
| 2026-04-16 22:24 | 23.14810 | 39.21889 | 25885 ft | 388 kts | 208° |
| 2026-04-16 22:24 | 23.12244 | 39.21006 | 25882 ft | 387 kts | 208° |
| 2026-04-16 22:24 | 23.09667 | 39.20123 | 25889 ft | 386 kts | 208° |
| 2026-04-16 22:25 | 23.07104 | 39.19242 | 25887 ft | 386 kts | 208° |
| 2026-04-16 22:25 | 23.04540 | 39.18362 | 25891 ft | 386 kts | 208° |
| 2026-04-16 22:25 | 23.01968 | 39.17479 | 25888 ft | 387 kts | 208° |
| 2026-04-16 22:25 | 22.99384 | 39.16593 | 25878 ft | 387 kts | 208° |
| 2026-04-16 22:26 | 22.96813 | 39.15713 | 25881 ft | 387 kts | 208° |
| 2026-04-16 22:26 | 22.94248 | 39.14835 | 25886 ft | 386 kts | 208° |
| 2026-04-16 22:26 | 22.91684 | 39.13959 | 25880 ft | 387 kts | 209° |
| 2026-04-16 22:26 | 22.89113 | 39.13079 | 25878 ft | 387 kts | 208° |
| 2026-04-16 22:27 | 22.86553 | 39.12210 | 25875 ft | 388 kts | 208° |
| 2026-04-16 22:27 | 22.83961 | 39.11330 | 25870 ft | 387 kts | 208° |
| 2026-04-16 22:27 | 22.81315 | 39.10552 | 25864 ft | 395 kts | 204° |
| 2026-04-16 22:27 | 22.78615 | 39.10006 | 25862 ft | 398 kts | 201° |
| 2026-04-16 22:28 | 22.75876 | 39.09502 | 25863 ft | 398 kts | 202° |
| 2026-04-16 22:28 | 22.73285 | 39.08585 | 25858 ft | 377 kts | 217° |
| 2026-04-16 22:28 | 22.71168 | 39.07061 | 25852 ft | 360 kts | 230° |
| 2026-04-16 22:28 | 22.69515 | 39.05105 | 25848 ft | 350 kts | 241° |
| 2026-04-16 22:29 | 22.68298 | 39.02860 | 25859 ft | 347 kts | 247° |
| 2026-04-16 22:29 | 22.67148 | 39.00560 | 25862 ft | 347 kts | 246° |
| 2026-04-16 22:29 | 22.66004 | 38.98264 | 25854 ft | 347 kts | 247° |
| 2026-04-16 22:29 | 22.64860 | 38.95957 | 25850 ft | 346 kts | 246° |
| 2026-04-16 22:30 | 22.63715 | 38.93648 | 25852 ft | 347 kts | 247° |
| 2026-04-16 22:30 | 22.62662 | 38.91517 | 25653 ft | 347 kts | 246° |
| 2026-04-16 22:30 | 22.61638 | 38.89436 | 25444 ft | 346 kts | 247° |
| 2026-04-16 22:30 | 22.60495 | 38.87114 | 25214 ft | 345 kts | 247° |
| 2026-04-16 22:31 | 22.59377 | 38.84845 | 24986 ft | 345 kts | 246° |
| 2026-04-16 22:31 | 22.58259 | 38.82567 | 24759 ft | 344 kts | 246° |
| 2026-04-16 22:31 | 22.57126 | 38.80267 | 24530 ft | 344 kts | 246° |
| 2026-04-16 22:31 | 22.56011 | 38.78007 | 24297 ft | 344 kts | 246° |
| 2026-04-16 22:32 | 22.54886 | 38.75720 | 24062 ft | 344 kts | 246° |
| 2026-04-16 22:32 | 22.53759 | 38.73433 | 23823 ft | 343 kts | 245° |
| 2026-04-16 22:32 | 22.52642 | 38.71165 | 23586 ft | 343 kts | 245° |
| 2026-04-16 22:32 | 22.51514 | 38.68877 | 23348 ft | 343 kts | 245° |
| 2026-04-16 22:33 | 22.50404 | 38.66625 | 23113 ft | 343 kts | 244° |
| 2026-04-16 22:33 | 22.49278 | 38.64348 | 22865 ft | 343 kts | 244° |
| 2026-04-16 22:33 | 22.48158 | 38.62082 | 22615 ft | 342 kts | 245° |
| 2026-04-16 22:33 | 22.47036 | 38.59813 | 22368 ft | 341 kts | 245° |
| 2026-04-16 22:34 | 22.45933 | 38.57580 | 22121 ft | 340 kts | 244° |
| 2026-04-16 22:34 | 22.44809 | 38.55312 | 21876 ft | 340 kts | 244° |
| 2026-04-16 22:34 | 22.43705 | 38.53079 | 21629 ft | 339 kts | 244° |
| 2026-04-16 22:34 | 22.42484 | 38.50887 | 21262 ft | 342 kts | 235° |
| 2026-04-16 22:35 | 22.40629 | 38.49200 | 20342 ft | 361 kts | 217° |
| 2026-04-16 22:35 | 22.38248 | 38.48177 | 19397 ft | 381 kts | 201° |
| 2026-04-16 22:35 | 22.35587 | 38.47821 | 18713 ft | 387 kts | 193° |
| 2026-04-16 22:35 | 22.32912 | 38.47587 | 18110 ft | 383 kts | 193° |
| 2026-04-16 22:36 | 22.30316 | 38.47358 | 17287 ft | 376 kts | 193° |
| 2026-04-16 22:36 | 22.27718 | 38.47117 | 16429 ft | 367 kts | 192° |
| 2026-04-16 22:36 | 22.25200 | 38.47181 | 15685 ft | 367 kts | 175° |
| 2026-04-16 22:36 | 22.22822 | 38.48288 | 14403 ft | 389 kts | 149° |
| 2026-04-16 22:37 | 22.20927 | 38.50362 | 13497 ft | 396 kts | 129° |
| 2026-04-16 22:37 | 22.19736 | 38.53003 | 12605 ft | 393 kts | 109° |
| 2026-04-16 22:37 | 22.19101 | 38.55830 | 11738 ft | 382 kts | 105° |
| 2026-04-16 22:37 | 22.18537 | 38.58579 | 10864 ft | 373 kts | 105° |
| 2026-04-16 22:38 | 22.17966 | 38.61269 | 9986 ft | 365 kts | 106° |
| 2026-04-16 22:38 | 22.17388 | 38.63845 | 9276 ft | 350 kts | 107° |
| 2026-04-16 22:38 | 22.16818 | 38.66329 | 8676 ft | 335 kts | 107° |
| 2026-04-16 22:38 | 22.16258 | 38.68710 | 8032 ft | 322 kts | 107° |
| 2026-04-16 22:39 | 22.15711 | 38.71017 | 7451 ft | 311 kts | 107° |
| 2026-04-16 22:39 | 22.15188 | 38.73221 | 6946 ft | 300 kts | 107° |
| 2026-04-16 22:39 | 22.14672 | 38.75378 | 6355 ft | 294 kts | 106° |
| 2026-04-16 22:39 | 22.14171 | 38.77478 | 5977 ft | 289 kts | 107° |
| 2026-04-16 22:40 | 22.13678 | 38.79540 | 5691 ft | 283 kts | 106° |
| 2026-04-16 22:40 | 22.13194 | 38.81571 | 5422 ft | 277 kts | 106° |
| 2026-04-16 22:40 | 22.12642 | 38.83533 | 5166 ft | 271 kts | 109° |
| 2026-04-16 22:40 | 22.12041 | 38.85421 | 5020 ft | 260 kts | 110° |
| 2026-04-16 22:41 | 22.11460 | 38.87219 | 4993 ft | 246 kts | 110° |
| 2026-04-16 22:41 | 22.10909 | 38.88931 | 4935 ft | 241 kts | 110° |
| 2026-04-16 22:41 | 22.10356 | 38.90643 | 4665 ft | 240 kts | 110° |
| 2026-04-16 22:41 | 22.08583 | 38.96128 | 4036 ft | 235 kts | 109° |
| 2026-04-16 22:42 | 22.06537 | 39.02490 | 3625 ft | 235 kts | 111° |
| 2026-04-16 22:42 | 22.05628 | 39.03896 | 3389 ft | 232 kts | 146° |
| 2026-04-16 22:42 | 22.04134 | 39.04411 | 3168 ft | 224 kts | 180° |
| 2026-04-16 22:42 | 22.02535 | 39.04471 | 3086 ft | 231 kts | 176° |
| 2026-04-16 22:43 | 22.00953 | 39.04729 | 3041 ft | 233 kts | 168° |
| 2026-04-16 22:43 | 21.99361 | 39.05180 | 3014 ft | 233 kts | 163° |
| 2026-04-16 22:43 | 21.97831 | 39.05741 | 3001 ft | 234 kts | 161° |
| 2026-04-16 22:43 | 21.96295 | 39.06348 | 3009 ft | 233 kts | 160° |
| 2026-04-16 22:44 | 21.94778 | 39.06955 | 3003 ft | 232 kts | 160° |
| 2026-04-16 22:44 | 21.93255 | 39.07563 | 3071 ft | 232 kts | 160° |
| 2026-04-16 22:44 | 21.91726 | 39.08169 | 2963 ft | 231 kts | 160° |
| 2026-04-16 22:44 | 21.90200 | 39.08772 | 2988 ft | 231 kts | 160° |
| 2026-04-16 22:45 | 21.88696 | 39.09363 | 2994 ft | 232 kts | 160° |
| 2026-04-16 22:45 | 21.87164 | 39.09961 | 3006 ft | 233 kts | 160° |
| 2026-04-16 22:45 | 21.85629 | 39.10564 | 2996 ft | 233 kts | 160° |
| 2026-04-16 22:45 | 21.84102 | 39.11165 | 2819 ft | 234 kts | 160° |
| 2026-04-16 22:46 | 21.82583 | 39.11765 | 2521 ft | 226 kts | 160° |
| 2026-04-16 22:46 | 21.81150 | 39.12331 | 2235 ft | 216 kts | 160° |
| 2026-04-16 22:46 | 21.79768 | 39.12876 | 2023 ft | 204 kts | 159° |
| 2026-04-16 22:46 | 21.78463 | 39.13390 | 1762 ft | 194 kts | 159° |
| 2026-04-16 22:47 | 21.77223 | 39.13880 | 1503 ft | 183 kts | 159° |
| 2026-04-16 22:47 | 21.76078 | 39.14333 | 1262 ft | 170 kts | 159° |
| 2026-04-16 22:47 | 21.74994 | 39.14762 | 1028 ft | 158 kts | 160° |
| 2026-04-16 22:47 | 21.74004 | 39.15162 | 806 ft | 148 kts | 160° |
| 2026-04-16 22:48 | 21.73039 | 39.15525 | 704 ft | 147 kts | 160° |
| 2026-04-16 22:48 | 21.72069 | 39.15920 | 514 ft | 148 kts | 159° |
| 2026-04-16 22:48 | 21.71094 | 39.16295 | 310 ft | 149 kts | 160° |
| 2026-04-16 22:48 | 21.70127 | 39.16682 | 124 ft | 145 kts | 160° |
| 2026-04-16 22:49 | 21.69225 | 39.17031 | 55 ft | 125 kts | 159° |
| 2026-04-16 22:49 | 21.68566 | 39.17282 | 54 ft | 79 kts | 160° |
| 2026-04-16 22:49 | 21.68070 | 39.17492 | 54 ft | 73 kts | 159° |
| 2026-04-16 22:49 | 21.67617 | 39.17668 | 54 ft | 62 kts | 160° |
| 2026-04-16 22:50 | 21.67234 | 39.17818 | 54 ft | 52 kts | 157° |
| 2026-04-16 22:50 | 21.66900 | 39.17950 | 54 ft | 48 kts | 161° |
| 2026-04-16 22:50 | 21.66686 | 39.18019 | 54 ft | 20 kts | 190° |
| 2026-04-16 22:50 | 21.66622 | 39.17903 | 54 ft | 17 kts | 251° |
| 2026-04-16 22:51 | 21.66583 | 39.17795 | 54 ft | 15 kts | 240° |
| 2026-04-16 22:51 | 21.66490 | 39.17777 | 54 ft | 14 kts | 172° |
| 2026-04-16 22:51 | 21.66412 | 39.17726 | 54 ft | 7 kts | 216° |
| 2026-04-16 22:51 | 21.66372 | 39.17712 | 54 ft | 6 kts | 190° |
| 2026-04-16 22:52 | 21.66330 | 39.17704 | 54 ft | 0 kts | 189° |